createdAt,value
2022-08-22T00:02:59.905Z,100413.25
2022-08-22T00:03:01.247Z,100362.56
2022-08-22T00:08:29.316Z,100185.53
2022-08-22T00:13:36.249Z,100181.16
2022-08-22T00:18:46.915Z,100166.78
2022-08-22T00:23:54.092Z,100148.16
2022-08-22T00:29:01.201Z,100144.59
2022-08-22T00:34:06.374Z,100135.59
2022-08-22T00:39:15.275Z,100133.81
2022-08-22T00:44:50.510Z,100123.91
2022-08-22T00:50:28.400Z,100126.66
2022-08-22T00:55:45.409Z,100107.06
2022-08-22T01:00:54.058Z,100106.16
2022-08-22T01:06:06.024Z,100105.16
2022-08-22T01:11:28.354Z,100095.44
2022-08-22T01:16:47.394Z,100084.56
2022-08-22T01:22:23.777Z,100061.50
2022-08-22T01:28:09.799Z,100060.50
2022-08-22T01:33:53.469Z,100024.84
2022-08-22T01:39:34.181Z,100013.19
2022-08-22T01:44:59.985Z,99989.19
2022-08-22T01:50:12.644Z,99952.78
2022-08-22T01:55:24.338Z,99951.84
2022-08-22T02:00:35.347Z,99918.09
2022-08-22T02:05:41.467Z,99895.06
2022-08-22T02:10:55.213Z,99876.34
2022-08-22T02:16:08.352Z,99859.47
2022-08-22T02:21:16.466Z,99839.88
2022-08-22T02:26:23.147Z,99805.31
2022-08-22T02:31:36.507Z,99784.78
2022-08-22T02:36:46.615Z,99759.97
2022-08-22T02:41:54.717Z,99744.03
2022-08-22T02:47:04.276Z,99722.72
2022-08-22T02:52:10.801Z,99690.00
2022-08-22T02:57:15.367Z,99663.28
2022-08-22T03:02:28.488Z,99640.19
2022-08-22T03:07:37.644Z,99597.59
2022-08-22T03:12:48.959Z,99565.72
2022-08-22T03:17:55.363Z,99541.72
2022-08-22T03:23:01.167Z,99513.31
2022-08-22T03:28:10.484Z,99477.84
2022-08-22T03:33:19.564Z,99471.84
2022-08-22T03:38:25.220Z,99455.91
2022-08-22T03:43:44.969Z,99459.44
2022-08-22T03:49:14.579Z,99417.00
2022-08-22T03:54:52.206Z,99405.31
2022-08-22T04:00:10.210Z,99408.78
2022-08-22T04:05:34.827Z,99399.06
2022-08-22T04:10:51.559Z,99391.16
2022-08-22T04:16:12.055Z,99384.03
2022-08-22T04:21:43.633Z,99377.81
2022-08-22T04:26:49.360Z,99360.94
2022-08-22T04:31:55.480Z,99340.59
2022-08-22T04:37:05.193Z,99315.03
2022-08-22T04:42:31.788Z,99321.13
2022-08-22T04:47:37.690Z,99290.19
2022-08-22T04:52:51.195Z,99272.53
2022-08-22T04:57:58.350Z,99259.31
2022-08-22T05:03:03.262Z,99233.69
2022-08-22T05:08:12.656Z,99233.69
2022-08-22T05:13:19.676Z,99254.03
2022-08-22T05:18:25.533Z,99244.28
2022-08-22T05:23:37.309Z,99221.25
2022-08-22T05:28:42.766Z,99191.13
2022-08-22T05:33:47.292Z,99215.94
2022-08-22T05:38:55.997Z,99212.44
2022-08-22T05:43:58.691Z,99207.09
2022-08-22T05:49:03.674Z,99222.97
2022-08-22T05:54:12.467Z,99262.03
2022-08-22T05:59:23.425Z,99253.91
2022-08-22T06:04:32.401Z,99301.94
2022-08-22T06:09:55.453Z,99294.63
2022-08-22T06:15:03.097Z,99354.25
2022-08-22T06:20:16.532Z,99362.22
2022-08-22T06:25:23.905Z,99397.72
2022-08-22T06:30:27.635Z,99427.91
2022-08-22T06:35:53.629Z,99466.06
2022-08-22T06:40:58.175Z,99482.03
2022-08-22T06:46:01.252Z,99508.66
2022-08-22T06:51:08.211Z,99543.28
2022-08-22T06:56:13.121Z,99562.84
2022-08-22T07:01:17.924Z,99583.22
2022-08-22T07:06:24.103Z,99641.00
2022-08-22T07:11:30.011Z,99682.75
2022-08-22T07:16:35.499Z,99729.88
2022-08-22T07:21:44.481Z,99753.91
2022-08-22T07:26:54.363Z,99805.44
2022-08-22T07:32:03.396Z,99850.88
2022-08-22T07:37:08.546Z,99903.38
2022-08-22T07:42:17.222Z,99930.00
2022-08-22T07:47:26.093Z,99953.22
2022-08-22T07:52:35.414Z,99991.50
2022-08-22T07:57:41.715Z,100032.47
2022-08-22T08:02:46.425Z,100093.97
2022-08-22T08:07:49.532Z,100181.34
2022-08-22T08:13:02.419Z,100250.03
2022-08-22T08:18:07.475Z,100281.28
2022-08-22T08:23:11.900Z,100300.91
2022-08-22T08:28:33.304Z,100333.03
2022-08-22T08:33:39.025Z,100350.88
2022-08-22T08:38:46.461Z,100349.06
2022-08-22T08:43:56.699Z,100354.41
2022-08-22T08:49:24.066Z,100372.22
2022-08-22T08:54:43.264Z,100396.34
2022-08-22T08:59:52.613Z,100397.16
2022-08-22T09:05:25.270Z,100405.94
2022-08-22T09:10:40.297Z,100415.75
2022-08-22T09:16:04.449Z,100423.66
2022-08-22T09:21:45.420Z,100413.59
2022-08-22T09:26:49.676Z,100410.88
2022-08-22T09:32:04.364Z,100416.72
2022-08-22T09:37:17.916Z,100421.34
2022-08-22T09:42:25.053Z,100411.81
2022-08-22T09:47:33.400Z,100418.16
2022-08-22T09:52:53.989Z,100416.97
2022-08-22T09:58:11.470Z,100422.56
2022-08-22T10:03:18.910Z,100398.50
2022-08-22T10:08:40.210Z,100400.72
2022-08-22T10:14:00.817Z,100400.66
2022-08-22T10:19:16.532Z,100393.78
2022-08-22T10:24:43.806Z,100387.25
2022-08-22T10:29:56.011Z,100388.44
2022-08-22T10:35:06.264Z,100393.88
2022-08-22T10:40:14.284Z,100378.44
2022-08-22T10:45:23.620Z,100377.38
2022-08-22T10:50:31.787Z,100364.63
2022-08-22T10:55:35.312Z,100358.09
2022-08-22T11:00:46.363Z,100367.03
2022-08-22T11:05:54.819Z,100359.69
2022-08-22T11:11:13.844Z,100356.66
2022-08-22T11:16:28.336Z,100347.91
2022-08-22T11:21:45.848Z,100350.00
2022-08-22T11:26:52.089Z,100346.97
2022-08-22T11:32:00.446Z,100343.53
2022-08-22T11:37:20.492Z,100339.59
2022-08-22T11:42:32.649Z,100339.06
2022-08-22T11:47:41.312Z,100339.66
2022-08-22T11:53:07.656Z,100342.38
2022-08-22T11:58:25.291Z,100319.75
2022-08-22T12:03:58.493Z,100314.59
2022-08-22T12:09:20.154Z,100317.69
2022-08-22T12:14:28.672Z,100304.22
2022-08-22T12:19:42.121Z,100294.44
2022-08-22T12:25:11.412Z,100289.34
2022-08-22T12:30:18.791Z,100277.84
2022-08-22T12:35:33.436Z,100279.50
2022-08-22T12:40:48.843Z,100272.97
2022-08-22T12:46:06.711Z,100271.88
2022-08-22T12:51:25.464Z,100284.06
2022-08-22T12:56:35.801Z,100268.41
2022-08-22T13:01:43.728Z,100257.75
2022-08-22T13:07:02.661Z,100253.78
2022-08-22T13:12:20.248Z,100245.09
2022-08-22T13:17:25.724Z,100244.38
2022-08-22T13:22:31.481Z,100257.13
2022-08-22T13:27:51.162Z,100243.03
2022-08-22T13:32:56.363Z,100240.81
2022-08-22T13:38:06.729Z,100232.13
2022-08-22T13:43:13.017Z,100226.00
2022-08-22T13:48:16.259Z,100220.53
2022-08-22T13:53:26.545Z,100218.00
2022-08-22T13:58:38.885Z,100218.91
2022-08-22T14:03:48.814Z,100220.00
2022-08-22T14:08:53.316Z,100228.34
2022-08-22T14:14:00.153Z,100216.53
2022-08-22T14:19:06.201Z,100220.00
2022-08-22T14:24:18.968Z,100219.41
2022-08-22T14:29:24.255Z,100222.97
2022-08-22T14:34:27.792Z,100220.31
2022-08-22T14:39:35.785Z,100222.31
2022-08-22T14:44:45.097Z,100225.06
2022-08-22T14:49:51.351Z,100224.91
2022-08-22T14:55:09.030Z,100215.59
2022-08-22T15:00:14.548Z,100214.41
2022-08-22T15:05:19.744Z,100215.06
2022-08-22T15:10:25.249Z,100210.06
2022-08-22T15:15:33.477Z,100209.25
2022-08-22T15:21:02.144Z,100210.38
2022-08-22T15:26:13.040Z,100205.75
2022-08-22T15:31:18.385Z,100195.41
2022-08-22T15:36:24.556Z,100197.09
2022-08-22T15:41:36.583Z,100193.69
2022-08-22T15:46:43.533Z,100195.41
2022-08-22T15:51:50.317Z,100188.22
2022-08-22T15:57:15.125Z,100185.69
2022-08-22T16:02:27.026Z,100185.59
2022-08-22T16:07:39.972Z,100177.09
2022-08-22T16:12:45.686Z,100174.38
2022-08-22T16:17:53.431Z,100172.91
2022-08-22T16:23:08.801Z,100168.78
2022-08-22T16:28:31.676Z,100188.53
2022-08-22T16:33:45.471Z,100172.59
2022-08-22T16:38:49.500Z,100189.03
2022-08-22T16:44:14.006Z,100181.06
2022-08-22T16:49:29.418Z,100177.78
2022-08-22T16:54:46.776Z,100182.56
2022-08-22T17:00:04.830Z,100182.88
2022-08-22T17:05:20.991Z,100193.19
2022-08-22T17:10:31.093Z,100205.94
2022-08-22T17:15:36.699Z,100199.63
2022-08-22T17:20:45.744Z,100195.31
2022-08-22T17:25:58.555Z,100195.84
2022-08-22T17:31:03.381Z,100204.97
2022-08-22T17:36:27.120Z,100206.97
2022-08-22T17:41:34.780Z,100218.34
2022-08-22T17:46:44.536Z,100234.75
2022-08-22T17:51:52.693Z,100253.09
2022-08-22T17:57:05.108Z,100261.19
2022-08-22T18:02:13.445Z,100275.03
2022-08-22T18:07:33.331Z,100270.72
2022-08-22T18:12:42.256Z,100282.31
2022-08-22T18:17:51.523Z,100242.88
2022-08-22T18:22:58.454Z,100241.09
2022-08-22T18:28:04.890Z,100228.78
2022-08-22T18:33:12.158Z,100206.38
2022-08-22T18:38:22.244Z,100204.66
2022-08-22T18:43:36.879Z,100206.38
2022-08-22T18:48:59.321Z,100209.25
2022-08-22T18:54:25.617Z,100199.66
2022-08-22T18:59:41.764Z,100192.56
2022-08-22T19:05:04.277Z,100183.50
2022-08-22T19:10:27.614Z,100182.50
2022-08-22T19:15:37.639Z,100191.53
2022-08-22T19:20:58.929Z,100211.25
2022-08-22T19:26:25.825Z,100191.66
2022-08-22T19:31:44.258Z,100187.31
2022-08-22T19:36:47.568Z,100200.69
2022-08-22T19:41:53.580Z,100202.47
2022-08-22T19:47:04.776Z,100206.00
2022-08-22T19:52:19.873Z,100218.44
2022-08-22T19:57:29.072Z,100212.31
2022-08-22T20:02:37.432Z,100198.91
2022-08-22T20:07:49.249Z,100222.13
2022-08-22T20:13:04.036Z,100199.88
2022-08-22T20:23:32.158Z,100206.13
2022-08-22T20:28:44.239Z,100209.69
2022-08-22T20:33:48.263Z,100209.72
2022-08-22T20:38:56.872Z,100226.72
2022-08-22T20:44:04.227Z,100206.19
2022-08-22T20:49:09.751Z,100191.94
2022-08-22T20:54:18.481Z,100175.88
2022-08-22T20:59:41.717Z,100179.50
2022-08-22T21:04:54.985Z,100183.03
2022-08-22T21:10:22.349Z,100164.28
2022-08-22T21:15:32.767Z,100171.44
2022-08-22T21:20:38.319Z,100151.84
2022-08-22T21:25:50.508Z,100136.69
2022-08-22T21:30:54.537Z,100142.06
2022-08-22T21:35:59.055Z,100136.69
2022-08-22T21:41:05.228Z,100127.72
2022-08-22T21:46:09.262Z,100121.50
2022-08-22T21:51:42.202Z,100111.72
2022-08-22T21:56:44.891Z,100107.22
2022-08-22T22:01:49.727Z,100105.47
2022-08-22T22:06:52.376Z,100101.03
2022-08-22T22:11:55.099Z,100103.69
2022-08-22T22:16:59.064Z,100107.28
2022-08-22T22:22:01.703Z,100109.94
2022-08-22T22:27:05.044Z,100110.84
2022-08-22T22:32:10.269Z,100114.38
2022-08-22T22:37:14.624Z,100121.56
2022-08-22T22:42:17.249Z,100109.97
2022-08-22T22:47:28.410Z,100116.19
2022-08-22T22:52:31.061Z,100117.06
2022-08-22T22:57:42.339Z,100127.78
2022-08-22T23:02:46.692Z,100134.06
2022-08-22T23:07:49.463Z,100151.00
2022-08-22T23:12:52.145Z,100135.81
2022-08-22T23:17:56.124Z,100140.25
2022-08-22T23:22:59.464Z,100142.06
2022-08-22T23:28:02.463Z,100151.00
2022-08-22T23:33:06.715Z,100142.94
2022-08-22T23:38:09.542Z,100151.00
2022-08-22T23:43:12.245Z,100156.34
2022-08-22T23:48:16.287Z,100161.72
2022-08-22T23:53:19.157Z,100159.91
2022-08-22T23:58:21.901Z,100162.59
